createdAt,value
2022-08-08T00:04:05.271Z,45.6
2022-08-08T00:09:33.761Z,45.5
2022-08-08T00:15:05.119Z,45.2
2022-08-08T00:20:25.628Z,45.8
2022-08-08T00:25:51.982Z,45.9
2022-08-08T00:32:36.785Z,45.6
2022-08-08T00:38:03.387Z,44.3
2022-08-08T00:43:24.171Z,45.4
2022-08-08T00:49:02.391Z,44.3
2022-08-08T00:54:28.615Z,45.2
2022-08-08T00:59:47.448Z,44.9
2022-08-08T01:05:05.648Z,44.5
2022-08-08T01:10:24.418Z,44.4
2022-08-08T01:15:55.153Z,44.4
2022-08-08T01:21:14.461Z,44.6
2022-08-08T01:26:50.240Z,44.6
2022-08-08T01:32:21.461Z,43.9
2022-08-08T01:37:59.367Z,43.7
2022-08-08T01:43:19.192Z,43.5
2022-08-08T01:48:37.753Z,44.3
2022-08-08T01:56:31.758Z,44
2022-08-08T02:02:05.687Z,43.5
2022-08-08T02:07:49.979Z,43.8
2022-08-08T02:13:56.060Z,43.8
2022-08-08T02:20:16.063Z,44.1
2022-08-08T02:26:19.424Z,43.8
2022-08-08T02:32:05.579Z,43.6
2022-08-08T02:37:58.659Z,44.8
2022-08-08T02:44:59.421Z,44
2022-08-08T02:50:02.102Z,44.2
2022-08-08T02:55:22.767Z,45
2022-08-08T03:00:51.650Z,44.9
2022-08-08T03:06:34.720Z,44.5
2022-08-08T03:12:14.412Z,44.1
2022-08-08T03:17:40.959Z,44.3
2022-08-08T03:23:05.032Z,44.3
2022-08-08T03:28:27.048Z,43.7
2022-08-08T03:34:01.474Z,43.7
2022-08-08T03:39:22.445Z,44.9
2022-08-08T03:44:52.547Z,44.3
2022-08-08T03:50:26.067Z,43.5
2022-08-08T03:56:09.973Z,43.3
2022-08-08T04:02:51.973Z,44
2022-08-08T04:08:17.459Z,43
2022-08-08T04:14:36.672Z,42.7
2022-08-08T04:19:57.202Z,43.3
2022-08-08T04:25:17.850Z,43.5
2022-08-08T04:30:45.358Z,43.2
2022-08-08T04:36:05.401Z,43.6
2022-08-08T04:41:24.163Z,43.8
2022-08-08T04:46:43.722Z,44.3
2022-08-08T04:52:04.991Z,44.4
2022-08-08T04:57:23.611Z,45.1
2022-08-08T05:02:42.848Z,47.4
2022-08-08T05:08:03.773Z,44.9
2022-08-08T05:13:26.653Z,44.7
2022-08-08T05:18:46.506Z,44.4
2022-08-08T05:24:11.186Z,43.8
2022-08-08T05:29:31.317Z,44.6
2022-08-08T05:34:50.817Z,44.9
2022-08-08T05:40:17.132Z,44.3
2022-08-08T05:46:04.108Z,44.7
2022-08-08T05:51:26.300Z,44.4
2022-08-08T05:56:48.849Z,44.6
2022-08-08T06:02:09.894Z,45
2022-08-08T06:07:35.840Z,44.5
2022-08-08T06:13:02.201Z,44.4
2022-08-08T06:18:23.215Z,44.4
2022-08-08T06:24:13.659Z,45.4
2022-08-08T06:30:02.497Z,45.3
2022-08-08T06:36:10.408Z,44.3
2022-08-08T06:41:34.007Z,43.9
2022-08-08T06:46:52.470Z,44.9
2022-08-08T06:52:16.249Z,45
2022-08-08T06:58:03.977Z,43.6
2022-08-08T07:04:52.067Z,44.7
2022-08-08T07:10:12.869Z,43.8
2022-08-08T07:16:11.903Z,44.5
2022-08-08T07:21:34.171Z,44.8
2022-08-08T07:26:54.168Z,44.1
2022-08-08T07:32:24.679Z,44.3
2022-08-08T07:38:24.866Z,43.9
2022-08-08T07:43:54.572Z,43.7
2022-08-08T07:49:15.663Z,43.2
2022-08-08T07:54:34.148Z,42.8
2022-08-08T07:59:53.996Z,41.9
2022-08-08T08:05:16.591Z,43
2022-08-08T08:10:36.902Z,43.5
2022-08-08T08:15:57.947Z,43.5
2022-08-08T08:21:20.047Z,43.4
2022-08-08T08:26:56.503Z,42.8
2022-08-08T08:32:51.588Z,43.6
2022-08-08T08:38:20.205Z,44.3
2022-08-08T08:43:45.427Z,43.7
2022-08-08T08:49:03.876Z,43.3
2022-08-08T08:54:32.690Z,44.2
2022-08-08T09:00:11.427Z,43.6
2022-08-08T09:05:56.530Z,44.6
2022-08-08T09:11:16.046Z,43.5
2022-08-08T09:16:35.811Z,44.3
2022-08-08T09:22:08.120Z,43.9
2022-08-08T09:27:58.931Z,43.7
2022-08-08T09:34:35.302Z,44.2
2022-08-08T09:39:56.262Z,44.1
2022-08-08T09:46:03.363Z,44.2
2022-08-08T09:51:25.878Z,43.3
2022-08-08T09:56:48.676Z,43.5
2022-08-08T10:02:16.079Z,43.1
2022-08-08T10:07:45.218Z,44
2022-08-08T10:13:00.287Z,43.1
2022-08-08T10:18:33.791Z,43.3
2022-08-08T10:24:00.387Z,43.5
2022-08-08T10:29:28.262Z,42.7
2022-08-08T10:35:01.940Z,43.9
2022-08-08T10:40:21.374Z,43.5
2022-08-08T10:45:42.325Z,43
2022-08-08T10:51:15.496Z,43.4
2022-08-08T10:56:36.376Z,43.3
2022-08-08T11:02:03.754Z,43.4
2022-08-08T11:08:50.290Z,43.7
2022-08-08T11:14:19.394Z,43.6
2022-08-08T11:19:52.995Z,43.5
2022-08-08T11:25:16.928Z,43.1
2022-08-08T11:30:52.801Z,43.7
2022-08-08T11:36:13.849Z,43.5
2022-08-08T11:41:34.555Z,43.6
2022-08-08T11:46:54.784Z,43
2022-08-08T11:52:31.918Z,43.8
2022-08-08T11:58:08.612Z,43.7
2022-08-08T12:03:33.943Z,43.6
2022-08-08T12:08:52.679Z,43.2
2022-08-08T12:14:12.730Z,43.4
2022-08-08T12:19:54.801Z,44
2022-08-08T12:25:15.729Z,43.5
2022-08-08T12:30:34.222Z,44.1
2022-08-08T12:35:53.860Z,44
2022-08-08T12:42:01.646Z,43.6
2022-08-08T12:48:10.680Z,43.9
2022-08-08T12:53:59.799Z,43.5
2022-08-08T12:59:18.521Z,43.2
2022-08-08T13:04:42.905Z,43.6
2022-08-08T13:10:11.304Z,43.9
2022-08-08T13:15:29.798Z,43.3
2022-08-08T13:20:49.485Z,44.5
2022-08-08T13:26:15.864Z,43.5
2022-08-08T13:31:36.529Z,43.9
2022-08-08T13:36:59.746Z,44.8
2022-08-08T13:42:21.582Z,43
2022-08-08T13:47:58.484Z,41.7
2022-08-08T13:53:26.647Z,42.3
2022-08-08T13:58:57.982Z,43.1
2022-08-08T14:04:21.208Z,43.2
2022-08-08T14:10:17.832Z,41.8
2022-08-08T14:15:51.416Z,41.9
2022-08-08T14:21:22.712Z,41.6
2022-08-08T14:26:42.670Z,41.7
2022-08-08T14:32:30.532Z,41.1
2022-08-08T14:38:33.197Z,41.3
2022-08-08T14:44:22.622Z,40.8
2022-08-08T14:50:22.654Z,40.4
2022-08-08T14:56:05.878Z,40.1
2022-08-08T15:01:41.657Z,40.5
2022-08-08T15:07:24.555Z,42.3
2022-08-08T15:12:57.902Z,41.9
2022-08-08T15:18:21.081Z,42.5
2022-08-08T15:23:52.269Z,42.4
2022-08-08T15:29:13.104Z,42.6
2022-08-08T15:34:33.580Z,42.2
2022-08-08T15:39:55.423Z,42
2022-08-08T15:45:13.883Z,43.1
2022-08-08T15:50:32.641Z,43.3
2022-08-08T15:55:51.432Z,43.3
2022-08-08T16:01:10.484Z,42.4
2022-08-08T16:06:32.072Z,43.1
2022-08-08T16:13:45.387Z,43.7
2022-08-08T16:19:05.449Z,43.5
2022-08-08T16:24:24.205Z,44.2
2022-08-08T16:30:36.586Z,43.4
2022-08-08T16:35:55.125Z,43.9
2022-08-08T16:41:23.185Z,43.6
2022-08-08T16:46:46.893Z,44.6
2022-08-08T16:55:57.276Z,45
2022-08-08T17:01:16.211Z,45.4
2022-08-08T17:06:44.377Z,44.4
2022-08-08T17:12:03.325Z,44.3
2022-08-08T17:18:04.573Z,44.3
2022-08-08T17:24:22.119Z,44.8
2022-08-08T17:29:57.935Z,44.2
2022-08-08T17:36:21.971Z,43.9
2022-08-08T17:42:02.987Z,44.8
2022-08-08T17:47:41.423Z,44.8
2022-08-08T17:52:59.998Z,43.9
2022-08-08T17:58:20.020Z,43.6
2022-08-08T18:03:39.485Z,44.4
2022-08-08T18:08:59.283Z,44.1
2022-08-08T18:14:23.047Z,44.5
2022-08-08T18:20:54.640Z,44.7
2022-08-08T18:26:18.234Z,43.6
2022-08-08T18:31:40.037Z,44.3
2022-08-08T18:37:00.425Z,44.1
2022-08-08T18:42:18.359Z,44.2
2022-08-08T18:47:36.841Z,44.2
2022-08-08T18:52:55.605Z,43.9
2022-08-08T18:58:15.552Z,44.6
2022-08-08T19:04:13.231Z,43.8
2022-08-08T19:10:16.450Z,44
2022-08-08T19:15:35.284Z,44.3
2022-08-08T19:20:54.400Z,43.9
2022-08-08T19:26:31.613Z,43.8
2022-08-08T19:31:53.520Z,44.5
2022-08-08T19:37:17.340Z,44.5
2022-08-08T19:42:36.399Z,43.4
2022-08-08T19:47:54.796Z,44.2
2022-08-08T19:53:54.908Z,44
2022-08-08T19:59:13.553Z,43.7
2022-08-08T20:04:32.055Z,43.6
2022-08-08T20:09:58.832Z,43.9
2022-08-08T20:15:17.813Z,45
2022-08-08T20:20:38.221Z,42.6
2022-08-08T20:25:59.332Z,43
2022-08-08T20:31:21.873Z,41.9
2022-08-08T20:36:44.448Z,42.5
2022-08-08T20:42:04.760Z,41.6
2022-08-08T20:47:26.248Z,41.1
2022-08-08T20:52:48.781Z,41.9
2022-08-08T20:58:23.914Z,41.1
2022-08-08T21:04:01.973Z,39.2
2022-08-08T21:09:22.348Z,37
2022-08-08T21:14:40.784Z,38.6
2022-08-08T21:19:59.584Z,40.1
2022-08-08T21:25:18.065Z,41.3
2022-08-08T21:30:35.991Z,38.5
2022-08-08T21:36:20.571Z,38.3
2022-08-08T21:41:59.505Z,38.8
2022-08-08T21:48:28.878Z,38.5
2022-08-08T21:55:04.431Z,38.8
2022-08-08T22:00:42.342Z,39
2022-08-08T22:06:02.458Z,39.5
2022-08-08T22:12:10.091Z,39.2
2022-08-08T22:17:46.195Z,39
2022-08-08T22:23:09.372Z,37.3
2022-08-08T22:30:03.741Z,38.9
2022-08-08T22:36:11.949Z,38.7
2022-08-08T22:41:32.297Z,37.2
2022-08-08T22:46:53.021Z,38.6
2022-08-08T22:52:26.235Z,37.8
2022-08-08T22:57:52.300Z,38.6
2022-08-08T23:03:15.120Z,38
2022-08-08T23:08:58.493Z,37.4
2022-08-08T23:14:19.087Z,38.8
2022-08-08T23:19:37.819Z,38.6
2022-08-08T23:24:59.421Z,38.2
2022-08-08T23:30:18.942Z,37.7
2022-08-08T23:36:09.459Z,38.2
2022-08-08T23:41:46.338Z,38
2022-08-08T23:49:20.356Z,38.1
2022-08-08T23:55:19.710Z,37.5
